createdAt,value
2018-10-06T00:03:20.653Z,99.90
2018-10-06T00:08:23.901Z,99.90
2018-10-06T00:13:27.125Z,99.90
2018-10-06T00:18:30.349Z,99.90
2018-10-06T00:23:33.914Z,99.90
2018-10-06T00:28:37.161Z,99.90
2018-10-06T00:33:40.394Z,99.90
2018-10-06T00:38:43.661Z,99.90
2018-10-06T00:43:46.895Z,99.90
2018-10-06T00:48:50.110Z,99.90
2018-10-06T00:53:53.318Z,99.90
2018-10-06T00:58:56.529Z,99.90
2018-10-06T01:03:59.744Z,99.90
2018-10-06T01:09:03.082Z,99.90
2018-10-06T01:14:06.361Z,99.90
2018-10-06T01:19:09.687Z,99.90
2018-10-06T01:24:12.958Z,99.90
2018-10-06T01:29:16.196Z,99.90
2018-10-06T01:34:19.466Z,99.90
2018-10-06T01:39:22.686Z,99.90
2018-10-06T01:44:26.022Z,99.90
2018-10-06T01:49:29.274Z,99.90
2018-10-06T01:54:32.558Z,99.90
2018-10-06T01:59:35.846Z,99.90
2018-10-06T02:04:39.107Z,99.90
2018-10-06T02:09:44.428Z,99.90
2018-10-06T02:14:47.654Z,99.90
2018-10-06T02:19:50.893Z,99.90
2018-10-06T02:24:54.142Z,99.90
2018-10-06T02:29:57.433Z,99.90
2018-10-06T02:35:00.961Z,99.90
2018-10-06T02:40:04.208Z,99.90
2018-10-06T02:45:08.142Z,99.90
2018-10-06T02:50:11.462Z,99.90
2018-10-06T02:55:14.697Z,99.90
2018-10-06T03:00:17.979Z,99.90
2018-10-06T03:05:21.280Z,99.90
2018-10-06T03:10:24.534Z,99.90
2018-10-06T03:15:27.815Z,99.90
2018-10-06T03:20:31.133Z,99.90
2018-10-06T03:25:34.369Z,99.90
2018-10-06T03:30:37.588Z,99.90
2018-10-06T03:35:40.819Z,99.90
2018-10-06T03:40:44.050Z,99.90
2018-10-06T03:45:47.285Z,99.90
2018-10-06T03:50:50.538Z,99.90
2018-10-06T03:55:53.787Z,99.90
2018-10-06T04:00:57.022Z,99.90
2018-10-06T04:06:00.239Z,99.90
2018-10-06T04:11:03.489Z,99.90
2018-10-06T04:16:06.734Z,99.90
2018-10-06T04:21:09.946Z,99.90
2018-10-06T04:26:13.166Z,99.90
2018-10-06T04:31:16.414Z,99.90
2018-10-06T04:36:19.641Z,99.90
2018-10-06T04:41:22.881Z,99.90
2018-10-06T04:46:26.142Z,99.90
2018-10-06T04:51:29.445Z,99.90
2018-10-06T04:56:36.390Z,99.90
2018-10-06T05:01:40.883Z,99.90
2018-10-06T05:06:45.239Z,99.90
2018-10-06T05:11:51.962Z,99.90
2018-10-06T05:16:56.509Z,99.90
2018-10-06T05:21:59.842Z,99.90
2018-10-06T05:27:07.540Z,99.90
2018-10-06T05:32:11.889Z,99.90
2018-10-06T05:37:21.952Z,99.90
2018-10-06T05:42:26.687Z,99.90
2018-10-06T05:47:34.782Z,99.90
2018-10-06T05:52:38.799Z,99.90
2018-10-06T05:57:43.166Z,99.90
2018-10-06T06:02:46.410Z,99.90
2018-10-06T06:07:49.926Z,99.90
2018-10-06T06:12:53.173Z,99.90
2018-10-06T06:17:56.390Z,99.90
2018-10-06T06:22:59.618Z,99.90
2018-10-06T06:28:02.849Z,99.90
2018-10-06T06:33:06.211Z,99.90
2018-10-06T06:38:09.444Z,99.90
2018-10-06T06:43:12.650Z,99.90
2018-10-06T06:48:15.927Z,99.90
2018-10-06T06:53:19.177Z,99.90
2018-10-06T06:58:22.423Z,99.90
2018-10-06T07:03:26.753Z,99.90
2018-10-06T07:08:29.977Z,99.90
2018-10-06T07:13:33.262Z,99.90
2018-10-06T07:18:38.099Z,99.90
2018-10-06T07:23:41.320Z,99.90
2018-10-06T07:28:44.538Z,99.90
2018-10-06T07:33:47.787Z,99.90
2018-10-06T07:38:53.138Z,99.90
2018-10-06T07:43:56.346Z,99.90
2018-10-06T07:48:59.637Z,99.90
2018-10-06T07:54:03.029Z,99.90
2018-10-06T07:59:07.314Z,99.90
2018-10-06T08:04:10.534Z,99.90
2018-10-06T08:09:13.790Z,99.90
2018-10-06T08:14:17.093Z,99.90
2018-10-06T08:19:20.408Z,99.90
2018-10-06T08:24:24.697Z,99.90
2018-10-06T08:29:27.973Z,99.90
2018-10-06T08:34:31.256Z,99.90
2018-10-06T08:39:34.635Z,99.90
2018-10-06T08:44:37.959Z,99.90
2018-10-06T08:49:41.231Z,99.90
2018-10-06T08:54:44.526Z,99.90
2018-10-06T08:59:48.856Z,99.90
2018-10-06T09:04:52.222Z,99.90
2018-10-06T09:09:56.021Z,99.90
2018-10-06T09:15:00.457Z,99.90
2018-10-06T09:20:04.063Z,99.90
2018-10-06T09:25:07.509Z,99.90
2018-10-06T09:30:10.998Z,99.90
2018-10-06T09:35:18.781Z,99.90
2018-10-06T09:40:28.271Z,99.90
2018-10-06T09:45:33.498Z,99.90
2018-10-06T09:50:36.729Z,99.90
2018-10-06T09:55:41.081Z,99.90
2018-10-06T10:00:50.035Z,99.90
2018-10-06T10:05:55.357Z,99.90
2018-10-06T10:10:58.620Z,99.90
2018-10-06T10:16:02.394Z,99.90
2018-10-06T10:21:05.634Z,99.90
2018-10-06T10:26:09.978Z,99.90
2018-10-06T10:31:14.170Z,99.90
2018-10-06T10:36:19.661Z,98.90
2018-10-06T10:41:22.926Z,99.20
2018-10-06T10:46:26.154Z,98.70
2018-10-06T10:51:29.462Z,98.60
2018-10-06T10:56:32.661Z,98.40
2018-10-06T11:01:36.945Z,98.30
2018-10-06T11:06:40.209Z,97.70
2018-10-06T11:11:48.305Z,97.60
2018-10-06T11:16:51.770Z,98.30
2018-10-06T11:21:55.230Z,98.10
2018-10-06T11:26:58.528Z,98.00
2018-10-06T11:32:01.775Z,98.40
2018-10-06T11:37:05.060Z,98.50
2018-10-06T11:42:08.302Z,98.40
2018-10-06T11:47:13.632Z,98.30
2018-10-06T11:52:17.402Z,97.10
2018-10-06T11:57:21.688Z,96.80
2018-10-06T12:02:24.954Z,97.00
2018-10-06T12:07:28.266Z,95.90
2018-10-06T12:12:31.493Z,96.00
2018-10-06T12:17:34.757Z,96.10
2018-10-06T12:22:37.990Z,95.40
2018-10-06T12:27:41.246Z,95.10
2018-10-06T12:32:47.622Z,94.90
2018-10-06T12:37:50.878Z,94.90
2018-10-06T12:42:54.145Z,94.90
2018-10-06T12:47:58.708Z,94.80
2018-10-06T12:53:02.030Z,94.60
2018-10-06T12:58:05.390Z,94.30
2018-10-06T13:03:08.611Z,94.50
2018-10-06T13:08:12.226Z,94.10
2018-10-06T13:13:15.478Z,94.60
2018-10-06T13:18:18.913Z,94.30
2018-10-06T13:23:22.231Z,94.20
2018-10-06T13:28:25.500Z,94.10
2018-10-06T13:33:28.799Z,94.30
2018-10-06T13:38:32.070Z,93.90
2018-10-06T13:43:36.319Z,94.60
2018-10-06T13:48:42.578Z,93.30
2018-10-06T13:53:45.801Z,93.50
2018-10-06T13:58:49.210Z,93.10
2018-10-06T14:03:52.337Z,93.40
2018-10-06T14:08:55.666Z,94.00
2018-10-06T14:13:58.904Z,94.70
2018-10-06T14:19:02.142Z,94.50
2018-10-06T14:42:38.091Z,94.60
2018-10-06T14:47:53.957Z,95.10
2018-10-06T14:52:57.410Z,95.40
2018-10-06T14:58:00.686Z,95.20
2018-10-06T15:03:04.010Z,95.30
2018-10-06T15:08:07.218Z,95.70
2018-10-06T15:13:10.550Z,95.20
2018-10-06T15:18:13.838Z,95.70
2018-10-06T15:23:18.122Z,95.70
2018-10-06T15:28:22.199Z,96.30
2018-10-06T15:33:26.521Z,96.10
2018-10-06T15:38:31.646Z,96.40
2018-10-06T15:43:37.574Z,97.00
2018-10-06T15:48:41.134Z,97.40
2018-10-06T15:53:47.074Z,98.20
2018-10-06T15:58:50.570Z,99.50
2018-10-06T16:03:53.793Z,99.90
2018-10-06T16:08:57.098Z,99.90
2018-10-06T16:14:01.738Z,99.90
2018-10-06T16:19:10.479Z,99.90
2018-10-06T16:24:13.725Z,99.90
2018-10-06T16:29:17.032Z,99.90
2018-10-06T16:34:21.610Z,99.90
2018-10-06T16:39:25.932Z,99.90
2018-10-06T16:44:29.260Z,99.90
2018-10-06T16:49:33.563Z,99.90
2018-10-06T16:54:40.538Z,99.90
2018-10-06T16:59:43.881Z,99.90
2018-10-06T17:04:47.119Z,99.90
2018-10-06T17:09:50.391Z,99.90
2018-10-06T17:14:53.674Z,99.90
2018-10-06T17:19:56.978Z,99.90
2018-10-06T17:25:00.373Z,99.90
2018-10-06T17:30:07.187Z,99.90
2018-10-06T17:35:10.594Z,99.90
2018-10-06T17:40:13.832Z,99.90
2018-10-06T17:45:17.030Z,99.90
2018-10-06T17:50:20.325Z,99.90
2018-10-06T17:55:23.518Z,99.90
2018-10-06T18:00:26.786Z,99.90
2018-10-06T18:05:30.050Z,99.90
2018-10-06T18:10:33.261Z,99.90
2018-10-06T18:15:36.467Z,99.90
2018-10-06T18:20:40.786Z,99.90
2018-10-06T18:25:44.018Z,99.90
2018-10-06T18:30:47.250Z,99.90
2018-10-06T18:35:50.474Z,99.90
2018-10-06T18:40:53.782Z,99.90
2018-10-06T18:45:57.133Z,99.90
2018-10-06T18:51:00.389Z,99.90
2018-10-06T18:56:04.722Z,99.90
2018-10-06T19:01:12.574Z,99.90
2018-10-06T19:06:15.834Z,99.90
2018-10-06T19:11:22.562Z,99.90
2018-10-06T19:16:26.216Z,99.90
2018-10-06T19:21:29.546Z,99.90
2018-10-06T19:26:32.825Z,99.90
2018-10-06T19:31:37.204Z,99.90
2018-10-06T19:36:40.446Z,99.90
2018-10-06T19:41:43.870Z,99.90
2018-10-06T19:46:47.179Z,99.90
2018-10-06T19:51:50.521Z,99.90
2018-10-06T19:56:57.208Z,99.90
2018-10-06T20:02:00.494Z,99.90
2018-10-06T20:07:04.806Z,99.90
2018-10-06T20:12:09.113Z,99.90
2018-10-06T20:17:22.465Z,99.90
2018-10-06T20:22:29.006Z,99.90
2018-10-06T20:27:32.266Z,99.90
2018-10-06T20:32:36.546Z,99.90
2018-10-06T20:37:39.758Z,99.90
2018-10-06T20:42:43.149Z,99.90
2018-10-06T20:47:46.493Z,99.90
2018-10-06T20:52:49.953Z,99.90
2018-10-06T20:57:53.218Z,99.90
2018-10-06T21:03:00.623Z,99.90
2018-10-06T21:08:03.916Z,99.90
2018-10-06T21:13:10.702Z,99.90
2018-10-06T21:18:13.969Z,99.90
2018-10-06T21:23:17.150Z,99.90
2018-10-06T21:28:20.425Z,99.90
2018-10-06T21:33:23.642Z,99.90
2018-10-06T21:38:26.862Z,99.90
2018-10-06T21:43:30.107Z,99.90
2018-10-06T21:48:33.354Z,99.90
2018-10-06T21:53:36.780Z,99.90
2018-10-06T21:58:40.105Z,99.90
2018-10-06T22:03:43.397Z,99.90
2018-10-06T22:08:51.050Z,99.90
2018-10-06T22:13:54.346Z,99.90
2018-10-06T22:18:57.713Z,99.90
2018-10-06T22:24:00.985Z,99.90
2018-10-06T22:29:04.577Z,99.90
2018-10-06T22:34:07.819Z,99.90
2018-10-06T22:39:11.054Z,99.90
2018-10-06T22:44:14.342Z,99.90
2018-10-06T22:49:17.620Z,99.90
2018-10-06T22:54:20.917Z,99.90
2018-10-06T22:59:29.846Z,99.90
2018-10-06T23:04:33.268Z,99.90
2018-10-06T23:09:36.570Z,99.90
2018-10-06T23:14:39.849Z,99.90
2018-10-06T23:19:45.191Z,99.90
2018-10-06T23:24:48.453Z,99.90
2018-10-06T23:29:51.710Z,99.90
2018-10-06T23:34:54.945Z,99.90
2018-10-06T23:39:59.713Z,99.90
2018-10-06T23:45:02.917Z,99.90
2018-10-06T23:50:06.221Z,99.90
2018-10-06T23:55:09.470Z,99.90
